createdAt,value
2019-01-30T00:00:14.660Z,8.27
2019-01-30T00:02:43.146Z,9.17
2019-01-30T00:05:09.721Z,7.77
2019-01-30T00:07:36.929Z,7.53
2019-01-30T00:10:08.103Z,9.37
2019-01-30T00:12:34.664Z,6.70
2019-01-30T00:15:00.998Z,7.40
2019-01-30T00:17:27.614Z,7.40
2019-01-30T00:19:54.944Z,9.00
2019-01-30T00:22:21.230Z,7.60
2019-01-30T00:24:47.570Z,8.57
2019-01-30T00:27:14.132Z,9.10
2019-01-30T00:29:40.457Z,10.30
2019-01-30T00:32:06.797Z,9.00
2019-01-30T00:34:33.108Z,9.20
2019-01-30T00:36:59.727Z,11.13
2019-01-30T00:39:26.292Z,8.97
2019-01-30T00:41:52.612Z,9.77
2019-01-30T00:44:18.935Z,10.77
2019-01-30T00:46:45.516Z,10.50
2019-01-30T00:49:11.836Z,9.70
2019-01-30T00:51:38.134Z,10.00
2019-01-30T00:54:04.469Z,9.73
2019-01-30T00:56:30.757Z,10.83
2019-01-30T00:58:57.341Z,10.90
2019-01-30T01:01:23.635Z,10.13
2019-01-30T01:03:50.228Z,9.10
2019-01-30T01:06:16.770Z,10.50
2019-01-30T01:08:43.145Z,9.60
2019-01-30T01:11:09.880Z,9.67
2019-01-30T01:13:36.198Z,12.07
2019-01-30T01:16:02.711Z,11.50
2019-01-30T01:18:29.759Z,9.43
2019-01-30T01:20:56.084Z,10.17
2019-01-30T01:23:22.510Z,10.50
2019-01-30T01:25:49.098Z,10.83
2019-01-30T01:28:15.695Z,10.20
2019-01-30T01:30:43.307Z,10.40
2019-01-30T01:33:09.629Z,11.40
2019-01-30T01:35:35.949Z,10.90
2019-01-30T01:38:02.462Z,10.20
2019-01-30T01:40:28.793Z,10.73
2019-01-30T01:42:55.112Z,11.87
2019-01-30T01:45:23.469Z,11.83
2019-01-30T01:47:49.862Z,11.17
2019-01-30T01:50:19.037Z,11.53
2019-01-30T01:52:45.837Z,12.20
2019-01-30T01:55:13.003Z,11.80
2019-01-30T01:57:39.411Z,12.00
2019-01-30T02:00:13.494Z,13.30
2019-01-30T02:02:41.266Z,12.13
2019-01-30T02:05:11.492Z,12.77
2019-01-30T02:07:37.785Z,11.00
2019-01-30T02:10:09.494Z,12.70
2019-01-30T02:12:37.339Z,12.33
2019-01-30T02:15:09.347Z,12.73
2019-01-30T02:17:35.646Z,13.17
2019-01-30T02:20:10.151Z,12.07
2019-01-30T02:22:36.737Z,13.37
2019-01-30T02:25:07.818Z,13.87
2019-01-30T02:27:34.253Z,14.07
2019-01-30T02:30:00.549Z,14.00
2019-01-30T02:32:27.142Z,14.23
2019-01-30T02:34:53.703Z,13.90
2019-01-30T02:37:20.032Z,13.70
2019-01-30T02:39:46.339Z,14.40
2019-01-30T02:42:12.905Z,13.67
2019-01-30T02:44:39.221Z,14.20
2019-01-30T02:47:05.536Z,14.30
2019-01-30T02:49:32.146Z,14.73
2019-01-30T02:51:58.706Z,14.83
2019-01-30T02:54:25.032Z,13.60
2019-01-30T02:56:51.570Z,15.50
2019-01-30T02:59:18.146Z,13.60
2019-01-30T03:01:49.028Z,12.93
2019-01-30T03:04:15.347Z,13.57
2019-01-30T03:06:41.779Z,14.20
2019-01-30T03:09:08.337Z,13.67
2019-01-30T03:11:34.937Z,13.20
2019-01-30T03:14:01.246Z,13.53
2019-01-30T03:16:27.845Z,12.80
2019-01-30T03:18:54.254Z,14.57
2019-01-30T03:21:20.855Z,12.47
2019-01-30T03:23:48.458Z,11.93
2019-01-30T03:26:14.797Z,13.13
2019-01-30T03:28:41.093Z,12.03
2019-01-30T03:31:18.043Z,12.50
2019-01-30T03:33:37.548Z,13.20
2019-01-30T03:36:03.911Z,12.33
2019-01-30T03:38:30.198Z,12.27
2019-01-30T03:40:56.774Z,12.43
2019-01-30T03:43:23.078Z,13.37
2019-01-30T03:45:49.393Z,11.87
2019-01-30T03:48:16.567Z,12.63
2019-01-30T03:50:42.906Z,11.50
2019-01-30T03:53:09.563Z,13.00
2019-01-30T03:55:36.126Z,12.17
2019-01-30T03:58:02.718Z,12.50
2019-01-30T04:00:30.052Z,12.30
2019-01-30T04:02:56.633Z,12.50
2019-01-30T04:05:23.170Z,12.30
2019-01-30T04:07:50.580Z,12.57
2019-01-30T04:10:20.914Z,12.20
2019-01-30T04:12:47.451Z,10.20
2019-01-30T04:15:14.300Z,11.10
2019-01-30T04:17:40.818Z,9.37
2019-01-30T04:20:12.969Z,10.27
2019-01-30T04:22:39.554Z,9.80
2019-01-30T04:25:07.921Z,10.37
2019-01-30T04:27:35.596Z,12.00
2019-01-30T04:30:10.218Z,10.40
2019-01-30T04:32:36.855Z,8.70
2019-01-30T04:35:05.337Z,9.40
2019-01-30T04:37:31.931Z,10.60
2019-01-30T04:39:58.502Z,8.83
2019-01-30T04:42:25.086Z,10.23
2019-01-30T04:44:51.394Z,10.47
2019-01-30T04:47:17.959Z,11.03
2019-01-30T04:49:44.305Z,10.73
2019-01-30T04:52:11.154Z,9.70
2019-01-30T04:54:37.515Z,9.77
2019-01-30T04:57:03.917Z,9.90
2019-01-30T04:59:30.214Z,11.73
2019-01-30T05:01:56.572Z,10.30
2019-01-30T05:04:22.893Z,11.40
2019-01-30T05:06:49.465Z,10.57
2019-01-30T05:09:15.754Z,10.43
2019-01-30T05:11:42.322Z,10.60
2019-01-30T05:14:08.656Z,10.10
2019-01-30T05:16:34.958Z,11.33
2019-01-30T05:19:01.279Z,9.30
2019-01-30T05:21:27.863Z,9.67
2019-01-30T05:23:54.233Z,9.50
2019-01-30T05:26:20.684Z,9.07
2019-01-30T05:28:47.004Z,9.43
2019-01-30T05:31:13.362Z,10.27
2019-01-30T05:33:40.010Z,10.10
2019-01-30T05:36:06.498Z,8.90
2019-01-30T05:38:33.073Z,9.30
2019-01-30T05:40:59.644Z,8.73
2019-01-30T05:43:25.972Z,10.60
2019-01-30T05:45:52.508Z,10.43
2019-01-30T05:48:18.867Z,9.40
2019-01-30T05:50:45.178Z,9.70
2019-01-30T05:53:11.512Z,10.50
2019-01-30T05:55:38.062Z,8.60
2019-01-30T05:58:04.631Z,9.60
2019-01-30T06:00:34.585Z,9.70
2019-01-30T06:03:00.946Z,9.73
2019-01-30T06:05:27.501Z,9.93
2019-01-30T06:07:53.824Z,9.10
2019-01-30T06:10:20.492Z,8.40
2019-01-30T06:12:47.067Z,11.07
2019-01-30T06:15:16.696Z,10.33
2019-01-30T06:17:43.312Z,9.27
2019-01-30T06:20:24.615Z,9.07
2019-01-30T06:22:51.860Z,8.67
2019-01-30T06:25:18.240Z,8.23
2019-01-30T06:27:44.852Z,8.73
2019-01-30T06:30:17.398Z,8.83
2019-01-30T06:32:43.785Z,8.10
2019-01-30T06:35:10.761Z,8.20
2019-01-30T06:37:37.065Z,8.90
2019-01-30T06:40:11.980Z,8.47
2019-01-30T06:42:38.707Z,8.00
2019-01-30T06:45:07.330Z,7.80
2019-01-30T06:47:33.641Z,7.80
2019-01-30T06:50:00.304Z,7.93
2019-01-30T06:52:26.882Z,8.97
2019-01-30T06:54:53.463Z,8.83
2019-01-30T06:57:20.016Z,7.57
2019-01-30T06:59:46.329Z,7.77
2019-01-30T07:02:12.750Z,8.03
2019-01-30T07:04:39.087Z,6.43
2019-01-30T07:07:05.636Z,6.90
2019-01-30T07:09:32.229Z,7.27
2019-01-30T07:11:58.779Z,7.43
2019-01-30T07:14:25.137Z,6.73
2019-01-30T07:16:51.709Z,6.37
2019-01-30T07:19:18.065Z,6.60
2019-01-30T07:21:44.498Z,7.63
2019-01-30T07:24:10.820Z,6.40
2019-01-30T07:26:38.279Z,6.60
2019-01-30T07:29:04.853Z,6.93
2019-01-30T07:31:31.520Z,6.53
2019-01-30T07:33:58.140Z,6.67
2019-01-30T07:36:24.703Z,7.70
2019-01-30T07:38:51.274Z,7.70
2019-01-30T07:41:17.849Z,7.23
2019-01-30T07:43:44.185Z,8.27
2019-01-30T07:46:10.500Z,7.20
2019-01-30T07:48:36.817Z,7.70
2019-01-30T07:51:03.488Z,7.00
2019-01-30T07:53:29.816Z,6.73
2019-01-30T07:55:56.148Z,7.13
2019-01-30T07:58:22.475Z,6.57
2019-01-30T08:00:48.834Z,7.07
2019-01-30T08:03:15.454Z,6.40
2019-01-30T08:05:42.806Z,7.27
2019-01-30T08:08:09.564Z,6.60
2019-01-30T08:10:36.159Z,6.47
2019-01-30T08:13:03.002Z,7.27
2019-01-30T08:15:29.413Z,6.77
2019-01-30T08:17:55.719Z,5.97
2019-01-30T08:20:22.031Z,6.30
2019-01-30T08:22:49.480Z,7.50
2019-01-30T08:25:18.682Z,7.57
2019-01-30T08:27:45.405Z,7.07
2019-01-30T08:30:23.542Z,6.03
2019-01-30T08:32:50.203Z,6.87
2019-01-30T08:35:19.070Z,6.13
2019-01-30T08:37:45.959Z,5.60
2019-01-30T08:40:12.846Z,5.40
2019-01-30T08:42:39.545Z,6.07
2019-01-30T08:45:17.038Z,5.33
2019-01-30T08:47:43.456Z,5.40
2019-01-30T08:50:12.363Z,6.23
2019-01-30T08:52:38.831Z,6.40
2019-01-30T08:55:09.983Z,5.50
2019-01-30T08:57:36.305Z,5.87
2019-01-30T09:00:11.037Z,5.20
2019-01-30T09:02:37.335Z,6.30
2019-01-30T09:05:07.609Z,6.13
2019-01-30T09:07:43.652Z,5.73
2019-01-30T09:10:07.634Z,5.33
2019-01-30T09:12:34.188Z,6.77
2019-01-30T09:15:00.521Z,5.67
2019-01-30T09:17:27.940Z,6.17
2019-01-30T09:19:54.500Z,5.47
2019-01-30T09:22:21.104Z,6.23
2019-01-30T09:24:47.411Z,5.87
2019-01-30T09:27:13.737Z,5.70
2019-01-30T09:29:40.042Z,5.03
2019-01-30T09:32:06.388Z,5.30
2019-01-30T09:34:32.735Z,5.53
2019-01-30T09:36:59.060Z,5.80
2019-01-30T09:39:25.383Z,5.57
2019-01-30T09:41:51.960Z,5.90
2019-01-30T09:44:18.275Z,5.20
2019-01-30T09:46:44.584Z,5.67
2019-01-30T09:49:10.910Z,5.30
2019-01-30T09:51:37.230Z,5.43
2019-01-30T09:54:03.846Z,5.47
2019-01-30T09:56:30.204Z,5.70
2019-01-30T09:58:56.512Z,5.83
2019-01-30T10:01:23.245Z,4.47
2019-01-30T10:03:49.793Z,5.63
2019-01-30T10:06:16.403Z,5.50
2019-01-30T10:08:42.982Z,5.20
2019-01-30T10:11:09.325Z,4.40
2019-01-30T10:13:37.516Z,5.07
2019-01-30T10:16:04.164Z,4.10
2019-01-30T10:18:30.454Z,3.87
2019-01-30T10:20:56.835Z,3.93
2019-01-30T10:23:23.162Z,4.63
2019-01-30T10:25:50.836Z,4.50
2019-01-30T10:28:17.337Z,3.90
2019-01-30T10:30:46.355Z,5.30
2019-01-30T10:33:14.022Z,4.50
2019-01-30T10:35:41.600Z,4.53
2019-01-30T10:38:07.939Z,4.43
2019-01-30T10:40:34.232Z,3.17
2019-01-30T10:43:00.848Z,3.80
2019-01-30T10:45:27.200Z,3.57
2019-01-30T10:47:53.981Z,3.93
2019-01-30T10:50:23.968Z,4.43
2019-01-30T10:52:50.382Z,4.53
2019-01-30T10:55:20.390Z,4.90
2019-01-30T10:57:49.559Z,4.70
2019-01-30T11:00:26.155Z,5.23
2019-01-30T11:02:52.498Z,4.97
2019-01-30T11:05:18.939Z,4.33
2019-01-30T11:07:45.275Z,5.33
2019-01-30T11:10:15.745Z,4.57
2019-01-30T11:12:42.074Z,4.50
2019-01-30T11:15:24.533Z,5.03
2019-01-30T11:17:51.442Z,4.40
2019-01-30T11:20:21.951Z,4.23
2019-01-30T11:22:47.843Z,4.90
2019-01-30T11:25:28.261Z,6.13
2019-01-30T11:27:55.863Z,4.77
2019-01-30T11:30:22.301Z,4.77
2019-01-30T11:32:48.614Z,4.53
2019-01-30T11:35:15.252Z,5.50
2019-01-30T11:37:41.796Z,5.17
2019-01-30T11:40:16.069Z,4.77
2019-01-30T11:42:42.772Z,5.30
2019-01-30T11:45:25.574Z,4.10
2019-01-30T11:47:52.896Z,4.60
2019-01-30T11:50:20.272Z,5.80
2019-01-30T11:52:46.578Z,3.90
2019-01-30T11:55:17.633Z,5.43
2019-01-30T11:57:44.246Z,4.70
2019-01-30T12:00:22.958Z,4.60
2019-01-30T12:02:51.341Z,4.57
2019-01-30T12:05:17.952Z,4.77
2019-01-30T12:07:44.294Z,4.70
2019-01-30T12:10:14.357Z,5.47
2019-01-30T12:12:41.482Z,5.23
2019-01-30T12:15:15.335Z,5.37
2019-01-30T12:17:41.922Z,5.03
2019-01-30T12:20:11.506Z,6.47
2019-01-30T12:22:37.815Z,5.63
2019-01-30T12:25:09.073Z,5.50
2019-01-30T12:27:35.421Z,5.50
2019-01-30T12:30:04.740Z,5.30
2019-01-30T12:32:31.368Z,5.40
2019-01-30T12:34:57.989Z,6.10
2019-01-30T12:37:24.315Z,5.17
2019-01-30T12:39:50.931Z,5.63
2019-01-30T12:42:23.130Z,6.97
2019-01-30T12:44:49.449Z,6.17
2019-01-30T12:47:19.885Z,6.60
2019-01-30T12:49:43.969Z,5.60
2019-01-30T12:52:10.674Z,6.63
2019-01-30T12:54:37.015Z,6.50
2019-01-30T12:57:03.603Z,6.40
2019-01-30T12:59:29.950Z,5.73
2019-01-30T13:01:56.557Z,7.90
2019-01-30T13:04:23.117Z,6.80
2019-01-30T13:06:49.714Z,7.27
2019-01-30T13:09:16.031Z,6.30
2019-01-30T13:11:42.335Z,6.50
2019-01-30T13:14:08.662Z,5.90
2019-01-30T13:16:35.223Z,6.80
2019-01-30T13:19:01.854Z,6.90
2019-01-30T13:21:28.499Z,7.53
2019-01-30T13:23:54.870Z,7.97
2019-01-30T13:26:21.191Z,7.97
2019-01-30T13:28:47.790Z,7.07
2019-01-30T13:31:14.480Z,7.60
2019-01-30T13:33:41.121Z,9.67
2019-01-30T13:36:07.696Z,6.80
2019-01-30T13:38:34.330Z,7.23
2019-01-30T13:41:00.937Z,6.10
2019-01-30T13:43:27.548Z,7.20
2019-01-30T13:45:53.907Z,7.23
2019-01-30T13:48:20.659Z,6.33
2019-01-30T13:50:46.972Z,8.17
2019-01-30T13:53:14.411Z,7.27
2019-01-30T13:55:41.121Z,7.23
2019-01-30T13:58:07.530Z,8.17
2019-01-30T14:00:36.132Z,7.20
2019-01-30T14:03:03.571Z,7.57
2019-01-30T14:05:30.392Z,7.73
2019-01-30T14:07:57.895Z,7.97
2019-01-30T14:10:27.012Z,8.40
2019-01-30T14:12:52.785Z,7.20
2019-01-30T14:15:23.738Z,8.00
2019-01-30T14:17:50.375Z,8.03
2019-01-30T14:20:18.207Z,8.07
2019-01-30T14:22:45.221Z,8.50
2019-01-30T14:25:13.798Z,8.27
2019-01-30T14:27:40.157Z,7.83
2019-01-30T14:30:17.809Z,8.07
2019-01-30T14:32:44.358Z,9.57
2019-01-30T14:35:11.227Z,8.00
2019-01-30T14:37:37.702Z,9.67
2019-01-30T14:40:12.711Z,8.13
2019-01-30T14:42:39.325Z,10.00
2019-01-30T14:45:10.991Z,7.03
2019-01-30T14:47:37.729Z,7.97
2019-01-30T14:50:09.875Z,8.73
2019-01-30T14:52:36.470Z,10.97
2019-01-30T14:55:05.944Z,7.97
2019-01-30T14:57:32.291Z,7.50
2019-01-30T14:59:58.909Z,7.87
2019-01-30T15:02:25.234Z,8.53
2019-01-30T15:04:51.886Z,7.67
2019-01-30T15:07:28.129Z,8.50
2019-01-30T15:09:46.465Z,9.03
2019-01-30T15:12:12.793Z,8.43
2019-01-30T15:14:39.093Z,9.57
2019-01-30T15:17:05.438Z,9.50
2019-01-30T15:19:31.958Z,9.50
2019-01-30T15:21:58.524Z,8.37
2019-01-30T15:24:24.835Z,10.13
2019-01-30T15:26:52.307Z,9.40
2019-01-30T15:29:18.921Z,8.27
2019-01-30T15:31:45.252Z,9.13
2019-01-30T15:34:11.600Z,9.13
2019-01-30T15:36:38.196Z,11.63
2019-01-30T15:39:07.055Z,9.90
2019-01-30T15:41:33.993Z,9.40
2019-01-30T15:44:00.596Z,10.20
2019-01-30T15:46:27.030Z,9.83
2019-01-30T15:48:53.585Z,10.53
2019-01-30T15:51:19.911Z,10.50
2019-01-30T15:53:46.479Z,10.93
2019-01-30T15:56:12.825Z,8.73
2019-01-30T15:58:39.374Z,12.23
2019-01-30T16:01:10.438Z,9.90
2019-01-30T16:03:36.788Z,10.60
2019-01-30T16:06:03.650Z,10.20
2019-01-30T16:08:29.984Z,10.63
2019-01-30T16:10:57.695Z,17.73
2019-01-30T16:13:24.278Z,13.40
2019-01-30T16:15:57.998Z,11.23
2019-01-30T16:18:24.622Z,11.37
2019-01-30T16:20:51.204Z,10.47
2019-01-30T16:23:20.842Z,11.90
2019-01-30T16:25:47.135Z,12.30
2019-01-30T16:28:13.526Z,11.40
2019-01-30T16:30:42.188Z,11.77
2019-01-30T16:33:08.303Z,9.40
2019-01-30T16:35:34.909Z,11.03
2019-01-30T16:38:01.534Z,10.83
2019-01-30T16:40:28.171Z,11.03
2019-01-30T16:42:55.591Z,11.50
2019-01-30T16:45:28.623Z,10.00
2019-01-30T16:47:55.396Z,11.63
2019-01-30T16:50:22.198Z,9.43
2019-01-30T16:52:48.625Z,12.70
2019-01-30T16:55:17.763Z,11.07
2019-01-30T16:57:44.445Z,11.37
2019-01-30T17:00:22.197Z,10.63
2019-01-30T17:02:48.891Z,10.30
2019-01-30T17:05:16.049Z,10.40
2019-01-30T17:07:42.354Z,12.63
2019-01-30T17:10:13.283Z,12.83
2019-01-30T17:12:39.899Z,13.67
2019-01-30T17:15:11.226Z,10.77
2019-01-30T17:17:37.532Z,11.83
2019-01-30T17:20:12.340Z,9.70
2019-01-30T17:22:39.011Z,10.03
2019-01-30T17:25:07.475Z,12.80
2019-01-30T17:27:34.058Z,12.37
2019-01-30T17:30:00.404Z,12.00
2019-01-30T17:32:27.049Z,10.73
2019-01-30T17:34:54.425Z,12.03
2019-01-30T17:37:20.827Z,12.17
2019-01-30T17:39:47.439Z,12.67
2019-01-30T17:42:14.040Z,11.33
2019-01-30T17:44:41.399Z,11.50
2019-01-30T17:47:08.127Z,11.10
2019-01-30T17:49:35.789Z,10.70
2019-01-30T17:52:02.117Z,11.77
2019-01-30T17:54:28.440Z,11.00
2019-01-30T17:56:54.763Z,12.40
2019-01-30T17:59:21.083Z,11.73
2019-01-30T18:01:47.398Z,11.80
2019-01-30T18:04:13.714Z,12.83
2019-01-30T18:06:40.296Z,11.50
2019-01-30T18:09:06.948Z,11.20
2019-01-30T18:11:33.968Z,9.83
2019-01-30T18:14:00.554Z,10.60
2019-01-30T18:16:27.036Z,11.77
2019-01-30T18:18:54.665Z,11.43
2019-01-30T18:21:21.210Z,10.30
2019-01-30T18:23:47.819Z,13.20
2019-01-30T18:26:14.427Z,13.40
2019-01-30T18:28:40.999Z,12.37
2019-01-30T18:31:07.597Z,10.83
2019-01-30T18:33:33.909Z,11.60
2019-01-30T18:36:00.292Z,10.13
2019-01-30T18:38:26.615Z,12.07
2019-01-30T18:40:52.990Z,12.60
2019-01-30T18:43:19.551Z,11.13
2019-01-30T18:45:46.124Z,11.23
2019-01-30T18:48:12.455Z,11.20
2019-01-30T18:50:38.925Z,11.30
2019-01-30T18:53:05.618Z,13.73
2019-01-30T18:55:32.302Z,12.50
2019-01-30T18:57:58.643Z,13.67
2019-01-30T19:00:35.256Z,11.53
2019-01-30T19:03:04.283Z,10.90
2019-01-30T19:05:32.316Z,11.90
2019-01-30T19:07:58.663Z,12.07
2019-01-30T19:10:25.163Z,13.03
2019-01-30T19:12:51.866Z,12.77
2019-01-30T19:15:22.310Z,12.73
2019-01-30T19:17:49.072Z,12.27
2019-01-30T19:20:26.682Z,13.60
2019-01-30T19:22:53.468Z,13.00
2019-01-30T19:25:20.129Z,13.57
2019-01-30T19:27:46.808Z,13.53
2019-01-30T19:30:23.755Z,14.00
2019-01-30T19:32:50.149Z,11.90
2019-01-30T19:35:17.072Z,14.13
2019-01-30T19:37:43.628Z,14.20
2019-01-30T19:40:12.604Z,14.00
2019-01-30T19:42:39.281Z,13.40
2019-01-30T19:45:11.425Z,13.50
2019-01-30T19:47:38.133Z,13.23
2019-01-30T19:50:18.630Z,13.33
2019-01-30T19:52:45.071Z,13.50
2019-01-30T19:55:13.051Z,15.50
2019-01-30T19:57:39.425Z,13.93
2019-01-30T20:00:16.948Z,14.47
2019-01-30T20:02:43.427Z,13.73
2019-01-30T20:05:12.968Z,16.67
2019-01-30T20:07:39.684Z,14.10
2019-01-30T20:10:17.154Z,16.20
2019-01-30T20:12:43.831Z,13.90
2019-01-30T20:15:10.997Z,15.43
2019-01-30T20:17:37.565Z,14.80
2019-01-30T20:20:11.217Z,14.13
2019-01-30T20:22:37.857Z,15.73
2019-01-30T20:25:09.865Z,13.77
2019-01-30T20:27:36.215Z,14.67
2019-01-30T20:30:10.746Z,14.40
2019-01-30T20:32:37.403Z,15.53
2019-01-30T20:35:06.059Z,14.27
2019-01-30T20:37:32.668Z,15.83
2019-01-30T20:39:59.367Z,15.23
2019-01-30T20:42:25.693Z,14.13
2019-01-30T20:44:52.308Z,16.37
2019-01-30T20:47:18.986Z,15.33
2019-01-30T20:49:45.303Z,14.40
2019-01-30T20:52:11.705Z,16.80
2019-01-30T20:54:38.106Z,16.00
2019-01-30T20:57:04.636Z,15.80
2019-01-30T20:59:31.205Z,16.00
2019-01-30T21:01:57.811Z,16.07
2019-01-30T21:04:24.202Z,16.03
2019-01-30T21:06:50.579Z,15.93
2019-01-30T21:09:16.978Z,17.10
2019-01-30T21:11:43.293Z,15.47
2019-01-30T21:14:09.939Z,15.10
2019-01-30T21:16:36.557Z,17.13
2019-01-30T21:19:03.391Z,15.50
2019-01-30T21:21:30.018Z,16.97
2019-01-30T21:23:56.597Z,17.53
2019-01-30T21:26:23.296Z,14.77
2019-01-30T21:28:49.865Z,16.17
2019-01-30T21:31:16.317Z,16.93
2019-01-30T21:33:44.973Z,15.30
2019-01-30T21:36:11.301Z,17.33
2019-01-30T21:38:37.905Z,12.70
2019-01-30T21:41:04.221Z,15.87
2019-01-30T21:43:30.968Z,15.40
2019-01-30T21:45:57.270Z,15.10
2019-01-30T21:48:23.836Z,16.40
2019-01-30T21:50:50.147Z,16.00
2019-01-30T21:53:16.492Z,15.47
2019-01-30T21:55:43.101Z,15.10
2019-01-30T21:58:09.426Z,14.37
2019-01-30T22:00:35.765Z,16.40
2019-01-30T22:03:02.525Z,16.90
2019-01-30T22:05:29.036Z,16.00
2019-01-30T22:08:00.869Z,19.23
2019-01-30T22:10:26.115Z,17.40
2019-01-30T22:12:54.924Z,18.00
2019-01-30T22:15:21.464Z,18.23
2019-01-30T22:17:48.099Z,16.93
2019-01-30T22:20:21.481Z,17.53
2019-01-30T22:22:48.051Z,17.30
2019-01-30T22:25:20.300Z,18.30
2019-01-30T22:27:46.689Z,18.27
2019-01-30T22:30:20.641Z,16.80
2019-01-30T22:32:47.338Z,18.10
2019-01-30T22:35:13.827Z,17.10
2019-01-30T22:37:40.473Z,16.47
2019-01-30T22:40:11.849Z,17.17
2019-01-30T22:42:38.381Z,17.53
2019-01-30T22:45:10.699Z,19.67
2019-01-30T22:47:37.089Z,17.30
2019-01-30T22:50:07.660Z,18.07
2019-01-30T22:52:34.260Z,17.83
2019-01-30T22:55:00.867Z,18.33
2019-01-30T22:57:27.189Z,16.23
2019-01-30T22:59:53.517Z,16.83
2019-01-30T23:02:20.062Z,19.13
2019-01-30T23:04:55.336Z,17.00
2019-01-30T23:07:39.489Z,17.37
2019-01-30T23:10:23.447Z,17.17
2019-01-30T23:13:04.547Z,18.40
2019-01-30T23:15:39.388Z,16.83
2019-01-30T23:18:36.927Z,18.30
2019-01-30T23:21:20.652Z,17.17
2019-01-30T23:24:07.628Z,19.10
2019-01-30T23:26:48.423Z,17.37
2019-01-30T23:29:54.468Z,17.70
2019-01-30T23:32:32.218Z,18.13
2019-01-30T23:35:16.611Z,17.73
2019-01-30T23:37:57.536Z,17.60
2019-01-30T23:40:42.187Z,18.13
2019-01-30T23:43:14.195Z,18.00
2019-01-30T23:46:04.090Z,18.20
2019-01-30T23:48:42.053Z,18.27
2019-01-30T23:51:30.802Z,18.97
2019-01-30T23:54:31.138Z,17.90
2019-01-30T23:57:28.512Z,19.60
